Richmond, Virginia
Current Conditions -  °F | °C
As of 2:54 AM on Tuesday 21 Oct 2014 (Local Time) from KRIC Reporting Station
Overcast Overcast  
Wind Chill: 57°   Ceiling: 10000
Heat Index: 57°   Visibility: 10mi
Dew Point: 47°   Wind: 3mph
Humidity: 69%   Direction: 200°SSW
Pressure: 29.91"   Gusts: NA
Location:  37.54°N, 77.43°W
Report Text: KRIC 210654Z 20003KT 10SM OVC100 14/08 A2991 RMK AO2 SLP134 T01390083
Loading
Personal Weather Stations






























Interactive Weather Map New forecast layout! Learn more

10-Day Weather Forecast

Advertisements
Track Severe Weather on mobile